createdAt,value
2018-03-09T00:00:12.253Z,996.43
2018-03-09T00:00:38.385Z,996.45
2018-03-09T00:01:04.502Z,996.42
2018-03-09T00:01:30.601Z,996.51
2018-03-09T00:01:56.719Z,996.46
2018-03-09T00:02:22.839Z,996.49
2018-03-09T00:02:48.946Z,996.45
2018-03-09T00:03:15.067Z,996.47
2018-03-09T00:03:41.171Z,996.61
2018-03-09T00:04:07.283Z,996.47
2018-03-09T00:04:33.403Z,996.54
2018-03-09T00:04:59.530Z,996.55
2018-03-09T00:05:25.641Z,996.57
2018-03-09T00:05:51.738Z,996.57
2018-03-09T00:06:17.858Z,996.52
2018-03-09T00:06:43.973Z,996.53
2018-03-09T00:07:10.064Z,996.57
2018-03-09T00:07:36.163Z,996.6
2018-03-09T00:08:02.283Z,996.57
2018-03-09T00:08:28.412Z,996.59
2018-03-09T00:08:54.537Z,996.62
2018-03-09T00:09:20.650Z,996.61
2018-03-09T00:09:46.751Z,996.61
2018-03-09T00:10:12.866Z,996.6
2018-03-09T00:10:38.968Z,996.59
2018-03-09T00:11:05.088Z,996.64
2018-03-09T00:11:31.191Z,996.64
2018-03-09T00:11:57.299Z,996.65
2018-03-09T00:12:23.400Z,996.66
2018-03-09T00:12:49.522Z,996.66
2018-03-09T00:13:15.615Z,996.63
2018-03-09T00:13:41.713Z,996.65
2018-03-09T00:14:07.819Z,996.63
2018-03-09T00:14:33.922Z,996.58
2018-03-09T00:15:00.030Z,996.59
2018-03-09T00:15:26.126Z,996.66
2018-03-09T00:15:52.225Z,996.69
2018-03-09T00:16:18.327Z,996.63
2018-03-09T00:16:44.436Z,996.66
2018-03-09T00:17:10.533Z,996.68
2018-03-09T00:17:36.636Z,996.68
2018-03-09T00:18:02.733Z,996.68
2018-03-09T00:18:28.839Z,996.68
2018-03-09T00:18:54.936Z,996.68
2018-03-09T00:19:21.049Z,996.7
2018-03-09T00:19:47.154Z,996.68
2018-03-09T00:20:13.291Z,996.64
2018-03-09T00:20:39.385Z,996.7
2018-03-09T00:21:05.481Z,996.68
2018-03-09T00:21:31.585Z,996.7
2018-03-09T00:21:57.689Z,996.69
2018-03-09T00:22:23.783Z,996.71
2018-03-09T00:22:50.258Z,996.69
2018-03-09T00:23:16.279Z,996.7
2018-03-09T00:23:42.388Z,996.73
2018-03-09T00:24:08.486Z,996.66
2018-03-09T00:24:34.603Z,996.73
2018-03-09T00:25:00.750Z,996.72
2018-03-09T00:25:26.850Z,996.74
2018-03-09T00:25:52.953Z,996.77
2018-03-09T00:26:19.053Z,996.7
2018-03-09T00:26:45.153Z,996.71
2018-03-09T00:27:11.254Z,996.81
2018-03-09T00:27:37.354Z,996.71
2018-03-09T00:28:03.452Z,996.74
2018-03-09T00:28:29.555Z,996.69
2018-03-09T00:28:55.653Z,996.72
2018-03-09T00:29:21.756Z,996.82
2018-03-09T00:29:47.849Z,996.73
2018-03-09T00:30:13.957Z,996.76
2018-03-09T00:30:40.057Z,996.76
2018-03-09T00:31:06.158Z,996.76
2018-03-09T00:31:32.265Z,996.66
2018-03-09T00:31:58.357Z,996.72
2018-03-09T00:32:24.464Z,996.73
2018-03-09T00:32:50.571Z,996.86
2018-03-09T00:33:16.656Z,996.76
2018-03-09T00:33:42.762Z,996.77
2018-03-09T00:34:08.858Z,996.74
2018-03-09T00:34:34.961Z,996.76
2018-03-09T00:35:01.062Z,996.72
2018-03-09T00:35:27.163Z,996.73
2018-03-09T00:35:53.262Z,996.75
2018-03-09T00:36:19.367Z,996.74
2018-03-09T00:36:45.467Z,996.78
2018-03-09T00:37:11.568Z,996.74
2018-03-09T00:37:37.668Z,996.74
2018-03-09T00:38:03.768Z,996.78
2018-03-09T00:38:29.866Z,996.8
2018-03-09T00:38:55.964Z,996.76
2018-03-09T00:39:22.064Z,996.79
2018-03-09T00:39:48.168Z,996.8
2018-03-09T00:40:14.271Z,996.79
2018-03-09T00:40:40.371Z,996.78
2018-03-09T00:41:06.514Z,996.82
2018-03-09T00:41:32.625Z,996.84
2018-03-09T00:41:58.736Z,996.84
2018-03-09T00:42:24.830Z,996.81
2018-03-09T00:42:50.967Z,996.83
2018-03-09T00:43:17.055Z,996.87
2018-03-09T00:43:43.169Z,996.85
2018-03-09T00:44:09.270Z,996.86
2018-03-09T00:44:35.377Z,996.84
2018-03-09T00:45:01.476Z,996.87
2018-03-09T00:45:27.571Z,996.82
2018-03-09T00:45:53.670Z,996.82
2018-03-09T00:46:19.771Z,996.85
2018-03-09T00:46:45.875Z,996.94
2018-03-09T00:47:11.982Z,996.86
2018-03-09T00:47:38.082Z,996.86
2018-03-09T00:48:04.190Z,996.9
2018-03-09T00:48:30.282Z,996.83
2018-03-09T00:48:56.416Z,996.84
2018-03-09T00:49:22.484Z,996.82
2018-03-09T00:49:48.596Z,996.84
2018-03-09T00:50:14.702Z,996.85
2018-03-09T00:50:40.802Z,996.83
2018-03-09T00:51:06.903Z,996.84
2018-03-09T00:51:33.034Z,996.88
2018-03-09T00:51:59.141Z,996.88
2018-03-09T00:52:25.244Z,996.83
2018-03-09T00:52:51.348Z,996.88
2018-03-09T00:53:17.475Z,996.88
2018-03-09T00:53:43.598Z,996.9
2018-03-09T00:54:09.700Z,996.89
2018-03-09T00:54:35.814Z,996.87
2018-03-09T00:55:01.932Z,996.85
2018-03-09T00:55:28.026Z,996.88
2018-03-09T00:55:54.131Z,996.87
2018-03-09T00:56:20.227Z,996.89
2018-03-09T00:56:46.326Z,996.86
2018-03-09T00:57:12.440Z,996.89
2018-03-09T00:57:38.536Z,996.88
2018-03-09T00:58:04.638Z,996.89
2018-03-09T00:58:30.746Z,996.83
2018-03-09T00:58:56.846Z,996.87
2018-03-09T00:59:22.948Z,996.91
2018-03-09T00:59:49.068Z,996.91
2018-03-09T01:00:15.170Z,996.9
2018-03-09T01:00:41.307Z,996.87
2018-03-09T01:01:07.393Z,996.87
2018-03-09T01:01:33.491Z,996.9
2018-03-09T01:01:59.590Z,996.87
2018-03-09T01:02:25.704Z,996.89
2018-03-09T01:02:51.809Z,996.87
2018-03-09T01:03:17.908Z,996.88
2018-03-09T01:03:44.010Z,996.93
2018-03-09T01:04:10.108Z,996.89
2018-03-09T01:04:36.223Z,996.93
2018-03-09T01:05:02.321Z,996.92
2018-03-09T01:05:28.421Z,996.99
2018-03-09T01:05:54.525Z,996.95
2018-03-09T01:06:20.624Z,996.87
2018-03-09T01:06:46.728Z,996.83
2018-03-09T01:07:12.828Z,996.96
2018-03-09T01:07:38.954Z,996.91
2018-03-09T01:08:05.056Z,996.9
2018-03-09T01:08:31.162Z,996.92
2018-03-09T01:08:57.260Z,996.94
2018-03-09T01:09:23.359Z,996.87
2018-03-09T01:09:49.463Z,996.91
2018-03-09T01:10:15.580Z,996.92
2018-03-09T01:10:41.675Z,996.92
2018-03-09T01:11:07.783Z,996.91
2018-03-09T01:11:33.883Z,996.87
2018-03-09T01:11:59.984Z,996.94
2018-03-09T01:12:26.082Z,996.89
2018-03-09T01:12:52.194Z,996.9
2018-03-09T01:13:18.290Z,996.92
2018-03-09T01:13:44.412Z,996.95
2018-03-09T01:14:10.514Z,997
2018-03-09T01:14:36.610Z,997
2018-03-09T01:15:02.710Z,996.98
2018-03-09T01:15:28.810Z,997
2018-03-09T01:15:54.927Z,997
2018-03-09T01:16:21.030Z,997
2018-03-09T01:16:47.149Z,996.98
2018-03-09T01:17:13.252Z,997.02
2018-03-09T01:17:39.354Z,997.03
2018-03-09T01:18:05.451Z,996.99
2018-03-09T01:18:31.559Z,996.97
2018-03-09T01:18:57.836Z,996.97
2018-03-09T01:19:23.936Z,997
2018-03-09T01:19:50.045Z,997.01
2018-03-09T01:20:16.154Z,997.04
2018-03-09T01:20:42.257Z,997.05
2018-03-09T01:21:09.558Z,997.06
2018-03-09T01:21:35.669Z,997.07
2018-03-09T01:22:01.773Z,997.05
2018-03-09T01:22:27.864Z,997.06
2018-03-09T01:22:54.010Z,997.01
2018-03-09T01:23:20.060Z,997.05
2018-03-09T01:23:46.166Z,997.05
2018-03-09T01:24:12.267Z,996.97
2018-03-09T01:24:38.395Z,997.07
2018-03-09T01:25:04.501Z,997.01
2018-03-09T01:25:30.597Z,997
2018-03-09T01:25:56.699Z,996.99
2018-03-09T01:26:22.795Z,996.97
2018-03-09T01:26:48.901Z,997.02
2018-03-09T01:27:15.024Z,997.02
2018-03-09T01:27:41.121Z,997.03
2018-03-09T01:28:07.225Z,996.98
2018-03-09T01:28:33.358Z,997.04
2018-03-09T01:28:59.461Z,997.05
2018-03-09T01:29:25.583Z,997.1
2018-03-09T01:29:51.665Z,997.04
2018-03-09T01:30:17.779Z,997.05
2018-03-09T01:30:43.872Z,997.07
2018-03-09T01:31:09.976Z,997.1
2018-03-09T01:31:36.105Z,997.02
2018-03-09T01:32:02.209Z,997
2018-03-09T01:32:28.322Z,997.01
2018-03-09T01:32:54.437Z,997.02
2018-03-09T01:33:20.543Z,997.03
2018-03-09T01:33:46.640Z,997.02
2018-03-09T01:34:12.739Z,997.02
2018-03-09T01:34:38.843Z,997.08
2018-03-09T01:35:04.950Z,997.07
2018-03-09T01:35:31.045Z,997.08
2018-03-09T01:35:57.166Z,997.05
2018-03-09T01:36:23.263Z,997.1
2018-03-09T01:36:49.381Z,997.1
2018-03-09T01:37:15.475Z,997.09
2018-03-09T01:37:41.582Z,997.06
2018-03-09T01:38:07.676Z,997.02
2018-03-09T01:38:33.789Z,997.06
2018-03-09T01:38:59.894Z,997.06
2018-03-09T01:39:25.991Z,997.07
2018-03-09T01:39:52.091Z,997.1
2018-03-09T01:40:18.196Z,997.06
2018-03-09T01:40:44.294Z,997.07
2018-03-09T01:41:10.388Z,997.06
2018-03-09T01:41:36.486Z,997.09
2018-03-09T01:42:02.590Z,997.12
2018-03-09T01:42:28.686Z,997.07
2018-03-09T01:42:54.794Z,997.07
2018-03-09T01:43:20.894Z,997.06
2018-03-09T01:43:46.993Z,997.11
2018-03-09T01:44:13.096Z,997.09
2018-03-09T01:44:39.191Z,997.16
2018-03-09T01:45:05.314Z,997.12
2018-03-09T01:45:31.431Z,997.11
2018-03-09T01:45:57.531Z,997.13
2018-03-09T01:46:23.651Z,997.11
2018-03-09T01:46:49.749Z,997.09
2018-03-09T01:47:15.852Z,997.14
2018-03-09T01:47:41.969Z,997.11
2018-03-09T01:48:08.095Z,997.1
2018-03-09T01:48:34.189Z,997.14
2018-03-09T01:49:00.292Z,997.13
2018-03-09T01:49:26.403Z,997.1
2018-03-09T01:49:52.505Z,997.12
2018-03-09T01:50:18.607Z,997.17
2018-03-09T01:50:44.704Z,997.15
2018-03-09T01:51:10.806Z,997.14
2018-03-09T01:51:36.904Z,997.13
2018-03-09T01:52:03.007Z,997.15
2018-03-09T01:52:29.108Z,997.15
2018-03-09T01:52:55.202Z,997.16
2018-03-09T01:53:21.310Z,997.15
2018-03-09T01:53:47.420Z,997.2
2018-03-09T01:54:13.518Z,997.15
2018-03-09T01:54:39.621Z,997.18
2018-03-09T01:55:05.718Z,997.15
2018-03-09T01:55:31.824Z,997.17
2018-03-09T01:55:57.924Z,997.18
2018-03-09T01:56:24.021Z,997.18
2018-03-09T01:56:50.126Z,997.18
2018-03-09T01:57:16.225Z,997.24
2018-03-09T01:57:42.320Z,997.21
2018-03-09T01:58:08.427Z,997.24
2018-03-09T01:58:34.529Z,997.2
2018-03-09T01:59:00.626Z,997.22
2018-03-09T01:59:26.737Z,997.24
2018-03-09T01:59:52.834Z,997.19
2018-03-09T02:00:18.936Z,997.22
2018-03-09T02:00:45.037Z,997.29
2018-03-09T02:01:11.135Z,997.21
2018-03-09T02:01:37.240Z,997.24
2018-03-09T02:02:03.353Z,997.24
2018-03-09T02:02:29.456Z,997.23
2018-03-09T02:02:55.560Z,997.2
2018-03-09T02:03:21.656Z,997.26
2018-03-09T02:03:47.773Z,997.25
2018-03-09T02:04:13.864Z,997.29
2018-03-09T02:04:39.959Z,997.25
2018-03-09T02:05:06.066Z,997.28
2018-03-09T02:05:32.162Z,997.3
2018-03-09T02:05:58.258Z,997.27
2018-03-09T02:06:24.361Z,997.26
2018-03-09T02:06:50.473Z,997.27
2018-03-09T02:07:16.578Z,997.26
2018-03-09T02:07:42.674Z,997.33
2018-03-09T02:08:08.768Z,997.35
2018-03-09T02:08:34.872Z,997.29
2018-03-09T02:09:00.967Z,997.29
2018-03-09T02:09:27.070Z,997.29
2018-03-09T02:09:53.166Z,997.31
2018-03-09T02:10:19.271Z,997.35
2018-03-09T02:10:45.371Z,997.35
2018-03-09T02:11:11.475Z,997.35
2018-03-09T02:11:37.576Z,997.39
2018-03-09T02:12:03.675Z,997.34
2018-03-09T02:12:29.773Z,997.34
2018-03-09T02:12:55.877Z,997.33
2018-03-09T02:13:21.976Z,997.33
2018-03-09T02:13:48.079Z,997.38
2018-03-09T02:14:14.188Z,997.38
2018-03-09T02:14:40.291Z,997.38
2018-03-09T02:15:06.398Z,997.4
2018-03-09T02:15:32.492Z,997.42
2018-03-09T02:15:58.595Z,997.34
2018-03-09T02:16:24.707Z,997.36
2018-03-09T02:16:50.835Z,997.4
2018-03-09T02:17:16.943Z,997.35
2018-03-09T02:17:43.066Z,997.39
2018-03-09T02:18:09.175Z,997.39
2018-03-09T02:18:35.272Z,997.4
2018-03-09T02:19:01.371Z,997.46
2018-03-09T02:19:27.472Z,997.41
2018-03-09T02:19:53.570Z,997.46
2018-03-09T02:20:19.669Z,997.4
2018-03-09T02:20:45.771Z,997.42
2018-03-09T02:21:11.879Z,997.44
2018-03-09T02:21:37.978Z,997.4
2018-03-09T02:22:04.123Z,997.41
2018-03-09T02:22:30.191Z,997.43
2018-03-09T02:22:56.299Z,997.43
2018-03-09T02:23:22.394Z,997.41
2018-03-09T02:23:48.502Z,997.38
2018-03-09T02:24:14.597Z,997.44
2018-03-09T02:24:40.692Z,997.45
2018-03-09T02:25:06.797Z,997.46
2018-03-09T02:25:32.916Z,997.42
2018-03-09T02:25:59.025Z,997.42
2018-03-09T02:26:25.147Z,997.45
2018-03-09T02:26:51.249Z,997.46
2018-03-09T02:27:17.349Z,997.44
2018-03-09T02:27:43.449Z,997.45
2018-03-09T02:28:09.582Z,997.46
2018-03-09T02:28:35.685Z,997.44
2018-03-09T02:29:01.789Z,997.5
2018-03-09T02:29:27.908Z,997.49
2018-03-09T02:29:54.010Z,997.5
2018-03-09T02:30:20.123Z,997.49
2018-03-09T02:30:46.223Z,997.5
2018-03-09T02:31:12.322Z,997.52
2018-03-09T02:31:38.424Z,997.51
2018-03-09T02:32:04.523Z,997.55
2018-03-09T02:32:30.624Z,997.51
2018-03-09T02:32:56.726Z,997.5
2018-03-09T02:33:22.839Z,997.48
2018-03-09T02:33:48.939Z,997.53
2018-03-09T02:34:15.072Z,997.55
2018-03-09T02:34:41.168Z,997.51
2018-03-09T02:35:07.280Z,997.5
2018-03-09T02:35:33.388Z,997.46
2018-03-09T02:35:59.482Z,997.54
2018-03-09T02:36:25.582Z,997.49
2018-03-09T02:36:51.684Z,997.54
2018-03-09T02:37:17.786Z,997.51
2018-03-09T02:37:43.903Z,997.48
2018-03-09T02:38:10.003Z,997.57
2018-03-09T02:38:36.109Z,997.51
2018-03-09T02:39:02.218Z,997.59
2018-03-09T02:39:28.340Z,997.5
2018-03-09T02:39:54.454Z,997.51
2018-03-09T02:40:20.549Z,997.49
2018-03-09T02:40:46.653Z,997.5
2018-03-09T02:41:12.774Z,997.59
2018-03-09T02:41:38.866Z,997.57
2018-03-09T02:42:04.977Z,997.57
2018-03-09T02:42:31.077Z,997.59
2018-03-09T02:42:57.185Z,997.54
2018-03-09T02:43:23.292Z,997.58
2018-03-09T02:43:49.403Z,997.54
2018-03-09T02:44:15.503Z,997.58
2018-03-09T02:44:41.602Z,997.59
2018-03-09T02:45:07.717Z,997.61
2018-03-09T02:45:33.813Z,997.63
2018-03-09T02:45:59.921Z,997.6
2018-03-09T02:46:26.019Z,997.63
2018-03-09T02:46:52.115Z,997.57
2018-03-09T02:47:18.252Z,997.56
2018-03-09T02:47:44.335Z,997.56
2018-03-09T02:48:10.445Z,997.59
2018-03-09T02:48:36.538Z,997.58
2018-03-09T02:49:02.631Z,997.62
2018-03-09T02:49:28.737Z,997.68
2018-03-09T02:49:54.827Z,997.66
2018-03-09T02:50:20.937Z,997.63
2018-03-09T02:50:47.049Z,997.66
2018-03-09T02:51:13.147Z,997.61
2018-03-09T02:51:39.247Z,997.69
2018-03-09T02:52:05.351Z,997.64
2018-03-09T02:52:31.454Z,997.7
2018-03-09T02:52:57.553Z,997.68
2018-03-09T02:53:23.653Z,997.67
2018-03-09T02:53:49.752Z,997.58
2018-03-09T02:54:15.847Z,997.66
2018-03-09T02:54:41.949Z,997.67
2018-03-09T02:55:08.059Z,997.66
2018-03-09T02:55:34.178Z,997.66
2018-03-09T02:56:00.278Z,997.76
2018-03-09T02:56:26.388Z,997.64
2018-03-09T02:56:52.482Z,997.62
2018-03-09T02:57:18.580Z,997.68
2018-03-09T02:57:44.681Z,997.67
2018-03-09T02:58:10.794Z,997.67
2018-03-09T02:58:36.897Z,997.61
2018-03-09T02:59:03.011Z,997.7
2018-03-09T02:59:29.108Z,997.7
2018-03-09T02:59:55.212Z,997.61
2018-03-09T03:00:21.332Z,997.67
2018-03-09T03:00:47.427Z,997.72
2018-03-09T03:01:13.531Z,997.65
2018-03-09T03:01:39.627Z,997.73
2018-03-09T03:02:05.735Z,997.7
2018-03-09T03:02:31.830Z,997.69
2018-03-09T03:02:57.923Z,997.74
2018-03-09T03:03:24.028Z,997.69
2018-03-09T03:03:50.122Z,997.72
2018-03-09T03:04:16.248Z,997.73
2018-03-09T03:04:42.345Z,997.78
2018-03-09T03:05:08.444Z,997.76
2018-03-09T03:05:34.543Z,997.76
2018-03-09T03:06:00.640Z,997.76
2018-03-09T03:06:26.744Z,997.79
2018-03-09T03:06:52.846Z,997.75
2018-03-09T03:07:18.947Z,997.73
2018-03-09T03:07:45.047Z,997.77
2018-03-09T03:08:11.149Z,997.8
2018-03-09T03:08:37.243Z,997.78
2018-03-09T03:09:03.363Z,997.75
2018-03-09T03:09:29.463Z,997.81
2018-03-09T03:09:55.567Z,997.79
2018-03-09T03:10:21.685Z,997.82
2018-03-09T03:10:47.806Z,997.76
2018-03-09T03:11:13.906Z,997.86
2018-03-09T03:11:39.999Z,997.79
2018-03-09T03:12:06.106Z,997.83
2018-03-09T03:12:32.210Z,997.83
2018-03-09T03:12:58.314Z,997.9
2018-03-09T03:13:24.410Z,997.79
2018-03-09T03:13:50.509Z,997.84
2018-03-09T03:14:16.609Z,997.88
2018-03-09T03:14:42.707Z,997.86
2018-03-09T03:15:08.810Z,997.9
2018-03-09T03:15:34.910Z,997.9
2018-03-09T03:16:01.005Z,997.93
2018-03-09T03:16:27.110Z,997.93
2018-03-09T03:16:53.209Z,997.94
2018-03-09T03:17:19.312Z,997.93
2018-03-09T03:17:45.424Z,997.91
2018-03-09T03:18:11.526Z,997.95
2018-03-09T03:18:37.646Z,997.96
2018-03-09T03:19:03.743Z,998.02
2018-03-09T03:19:29.866Z,997.98
2018-03-09T03:19:56.002Z,998.01
2018-03-09T03:20:22.067Z,997.95
2018-03-09T03:20:48.165Z,997.97
2018-03-09T03:21:14.256Z,997.98
2018-03-09T03:21:40.360Z,997.97
2018-03-09T03:22:06.454Z,997.98
2018-03-09T03:22:32.558Z,997.95
2018-03-09T03:22:58.661Z,997.99
2018-03-09T03:23:24.759Z,997.97
2018-03-09T03:23:50.872Z,997.97
2018-03-09T03:24:16.993Z,997.93
2018-03-09T03:24:43.107Z,998
2018-03-09T03:25:09.207Z,997.96
2018-03-09T03:25:35.305Z,997.97
2018-03-09T03:26:01.411Z,997.98
2018-03-09T03:26:27.504Z,997.97
2018-03-09T03:26:53.609Z,998.02
2018-03-09T03:27:19.710Z,997.94
2018-03-09T03:27:45.804Z,997.98
2018-03-09T03:28:11.904Z,998.01
2018-03-09T03:28:38.009Z,997.97
2018-03-09T03:29:04.110Z,997.98
2018-03-09T03:29:30.211Z,998.02
2018-03-09T03:29:56.310Z,998.03
2018-03-09T03:30:22.419Z,998.04
2018-03-09T03:30:48.529Z,998.02
2018-03-09T03:31:14.625Z,998.03
2018-03-09T03:31:40.725Z,998.03
2018-03-09T03:32:06.822Z,997.98
2018-03-09T03:32:32.931Z,998
2018-03-09T03:32:59.025Z,998.01
2018-03-09T03:33:25.130Z,998.04
2018-03-09T03:33:51.225Z,998.04
2018-03-09T03:34:17.323Z,998.07
2018-03-09T03:34:43.440Z,998.02
2018-03-09T03:35:09.538Z,998.09
2018-03-09T03:35:35.669Z,998.06
2018-03-09T03:36:01.758Z,998.04
2018-03-09T03:36:27.860Z,998.07
2018-03-09T03:36:53.964Z,998.07
2018-03-09T03:37:20.062Z,998.07
2018-03-09T03:37:46.195Z,998.06
2018-03-09T03:38:12.294Z,998.03
2018-03-09T03:38:38.392Z,998.09
2018-03-09T03:39:04.504Z,998.05
2018-03-09T03:39:30.605Z,998.06
2018-03-09T03:39:56.703Z,998.09
2018-03-09T03:40:22.801Z,998.07
2018-03-09T03:40:48.899Z,998.12
2018-03-09T03:41:15.002Z,998.04
2018-03-09T03:41:41.104Z,998.12
2018-03-09T03:42:07.204Z,998.1
2018-03-09T03:42:33.318Z,998.12
2018-03-09T03:42:59.417Z,998.16
2018-03-09T03:43:25.523Z,998.14
2018-03-09T03:43:51.624Z,998.13
2018-03-09T03:44:17.726Z,998.19
2018-03-09T03:44:43.819Z,998.19
2018-03-09T03:45:09.921Z,998.16
2018-03-09T03:45:36.024Z,998.13
2018-03-09T03:46:02.114Z,998.17
2018-03-09T03:46:28.216Z,998.13
2018-03-09T03:46:54.320Z,998.22
2018-03-09T03:47:20.421Z,998.2
2018-03-09T03:47:46.536Z,998.19
2018-03-09T03:48:12.637Z,998.17
2018-03-09T03:48:38.736Z,998.23
2018-03-09T03:49:04.835Z,998.21
2018-03-09T03:49:30.958Z,998.2
2018-03-09T03:49:57.054Z,998.24
2018-03-09T03:50:23.156Z,998.21
2018-03-09T03:50:49.267Z,998.19
2018-03-09T03:51:15.374Z,998.26
2018-03-09T03:51:41.476Z,998.18
2018-03-09T03:52:07.571Z,998.22
2018-03-09T03:52:33.678Z,998.21
2018-03-09T03:52:59.776Z,998.2
2018-03-09T03:53:25.877Z,998.22
2018-03-09T03:53:51.975Z,998.26
2018-03-09T03:54:18.072Z,998.28
2018-03-09T03:54:44.180Z,998.24
2018-03-09T03:55:10.280Z,998.25
2018-03-09T03:55:36.376Z,998.23
2018-03-09T03:56:02.482Z,998.25
2018-03-09T03:56:28.598Z,998.27
2018-03-09T03:56:54.700Z,998.27
2018-03-09T03:57:20.793Z,998.29
2018-03-09T03:57:46.896Z,998.26
2018-03-09T03:58:12.992Z,998.31
2018-03-09T03:58:39.093Z,998.29
2018-03-09T03:59:05.187Z,998.3
2018-03-09T03:59:31.286Z,998.31
2018-03-09T03:59:57.403Z,998.27
2018-03-09T04:00:23.506Z,998.3
2018-03-09T04:00:49.609Z,998.33
2018-03-09T04:01:15.711Z,998.3
2018-03-09T04:01:41.807Z,998.29
2018-03-09T04:02:07.908Z,998.31
2018-03-09T04:02:34.006Z,998.34
2018-03-09T04:03:00.105Z,998.34
2018-03-09T04:03:26.210Z,998.35
2018-03-09T04:03:52.320Z,998.33
2018-03-09T04:04:18.412Z,998.42
2018-03-09T04:04:44.523Z,998.34
2018-03-09T04:05:10.619Z,998.42
2018-03-09T04:05:36.728Z,998.41
2018-03-09T04:06:02.818Z,998.38
2018-03-09T04:06:28.919Z,998.44
2018-03-09T04:06:55.033Z,998.46
2018-03-09T04:07:21.130Z,998.44
2018-03-09T04:07:47.244Z,998.4
2018-03-09T04:08:13.344Z,998.42
2018-03-09T04:08:39.450Z,998.43
2018-03-09T04:09:05.548Z,998.44
2018-03-09T04:09:31.649Z,998.47
2018-03-09T04:09:57.747Z,998.46
2018-03-09T04:10:23.850Z,998.51
2018-03-09T04:10:49.971Z,998.47
2018-03-09T04:11:16.068Z,998.44
2018-03-09T04:11:42.164Z,998.49
2018-03-09T04:12:08.267Z,998.44
2018-03-09T04:12:34.362Z,998.41
2018-03-09T04:13:00.465Z,998.49
2018-03-09T04:13:26.562Z,998.45
2018-03-09T04:13:52.672Z,998.43
2018-03-09T04:14:18.762Z,998.42
2018-03-09T04:14:44.867Z,998.52
2018-03-09T04:15:10.964Z,998.48
2018-03-09T04:15:37.068Z,998.47
2018-03-09T04:16:03.165Z,998.47
2018-03-09T04:16:29.269Z,998.47
2018-03-09T04:16:55.373Z,998.48
2018-03-09T04:17:21.486Z,998.46
2018-03-09T04:17:47.583Z,998.45
2018-03-09T04:18:13.692Z,998.42
2018-03-09T04:18:39.808Z,998.46
2018-03-09T04:19:05.906Z,998.46
2018-03-09T04:19:32.010Z,998.49
2018-03-09T04:19:58.104Z,998.46
2018-03-09T04:20:24.207Z,998.47
2018-03-09T04:20:50.308Z,998.47
2018-03-09T04:21:16.408Z,998.45
2018-03-09T04:21:42.506Z,998.5
2018-03-09T04:22:08.627Z,998.5
2018-03-09T04:22:34.730Z,998.45
2018-03-09T04:23:00.833Z,998.47
2018-03-09T04:23:26.930Z,998.47
2018-03-09T04:23:53.035Z,998.48
2018-03-09T04:24:19.150Z,998.47
2018-03-09T04:24:45.253Z,998.46
2018-03-09T04:25:11.359Z,998.51
2018-03-09T04:25:37.455Z,998.51
2018-03-09T04:26:03.560Z,998.47
2018-03-09T04:26:29.670Z,998.48
2018-03-09T04:26:55.799Z,998.48
2018-03-09T04:27:21.900Z,998.49
2018-03-09T04:27:47.997Z,998.53
2018-03-09T04:28:14.103Z,998.49
2018-03-09T04:28:40.202Z,998.53
2018-03-09T04:29:06.306Z,998.5
2018-03-09T04:29:32.406Z,998.5
2018-03-09T04:29:58.505Z,998.52
2018-03-09T04:30:24.601Z,998.53
2018-03-09T04:30:50.698Z,998.49
2018-03-09T04:31:17.024Z,998.53
2018-03-09T04:31:42.897Z,998.54
2018-03-09T04:32:09.002Z,998.51
2018-03-09T04:32:35.103Z,998.56
2018-03-09T04:33:01.202Z,998.54
2018-03-09T04:33:27.307Z,998.56
2018-03-09T04:33:53.402Z,998.53
2018-03-09T04:34:19.508Z,998.59
2018-03-09T04:34:45.613Z,998.59
2018-03-09T04:35:11.702Z,998.58
2018-03-09T04:35:37.808Z,998.56
2018-03-09T04:36:03.909Z,998.54
2018-03-09T04:36:30.006Z,998.56
2018-03-09T04:36:56.111Z,998.54
2018-03-09T04:37:22.208Z,998.57
2018-03-09T04:37:48.309Z,998.61
2018-03-09T04:38:14.404Z,998.59
2018-03-09T04:38:40.506Z,998.57
2018-03-09T04:39:06.621Z,998.6
2018-03-09T04:39:32.722Z,998.58
2018-03-09T04:39:58.837Z,998.61
2018-03-09T04:40:24.934Z,998.6
2018-03-09T04:40:51.053Z,998.62
2018-03-09T04:41:17.175Z,998.6
2018-03-09T04:41:43.271Z,998.6
2018-03-09T04:42:09.378Z,998.61
2018-03-09T04:42:35.489Z,998.61
2018-03-09T04:43:01.595Z,998.63
2018-03-09T04:43:27.688Z,998.6
2018-03-09T04:43:53.788Z,998.65
2018-03-09T04:44:19.902Z,998.61
2018-03-09T04:44:46.018Z,998.61
2018-03-09T04:45:12.110Z,998.64
2018-03-09T04:45:38.223Z,998.59
2018-03-09T04:46:04.331Z,998.62
2018-03-09T04:46:30.429Z,998.65
2018-03-09T04:46:56.528Z,998.64
2018-03-09T04:47:22.626Z,998.63
2018-03-09T04:47:48.755Z,998.61
2018-03-09T04:48:14.870Z,998.65
2018-03-09T04:48:40.969Z,998.63
2018-03-09T04:49:07.070Z,998.62
2018-03-09T04:49:33.183Z,998.71
2018-03-09T04:49:59.298Z,998.65
2018-03-09T04:50:25.398Z,998.64
2018-03-09T04:50:51.499Z,998.66
2018-03-09T04:51:17.606Z,998.69
2018-03-09T04:51:43.709Z,998.73
2018-03-09T04:52:09.804Z,998.64
2018-03-09T04:52:35.907Z,998.67
2018-03-09T04:53:02.006Z,998.7
2018-03-09T04:53:28.104Z,998.68
2018-03-09T04:53:54.205Z,998.68
2018-03-09T04:54:20.306Z,998.7
2018-03-09T04:54:46.404Z,998.71
2018-03-09T04:55:12.506Z,998.66
2018-03-09T04:55:38.602Z,998.67
2018-03-09T04:56:04.699Z,998.69
2018-03-09T04:56:30.802Z,998.68
2018-03-09T04:56:56.900Z,998.71
2018-03-09T04:57:23.003Z,998.71
2018-03-09T04:57:49.108Z,998.7
2018-03-09T04:58:15.221Z,998.73
2018-03-09T04:58:41.322Z,998.73
2018-03-09T04:59:07.439Z,998.69
2018-03-09T04:59:33.543Z,998.68
2018-03-09T04:59:59.637Z,998.69
2018-03-09T05:00:25.742Z,998.7
2018-03-09T05:00:51.839Z,998.71
2018-03-09T05:01:17.936Z,998.74
2018-03-09T05:01:44.043Z,998.67
2018-03-09T05:02:10.142Z,998.68
2018-03-09T05:02:36.242Z,998.67
2018-03-09T05:03:02.345Z,998.67
2018-03-09T05:03:28.439Z,998.69
2018-03-09T05:03:54.548Z,998.71
2018-03-09T05:04:20.641Z,998.69
2018-03-09T05:04:46.742Z,998.7
2018-03-09T05:05:12.848Z,998.71
2018-03-09T05:05:38.949Z,998.75
2018-03-09T05:06:05.111Z,998.69
2018-03-09T05:06:31.149Z,998.72
2018-03-09T05:06:57.265Z,998.75
2018-03-09T05:07:23.361Z,998.71
2018-03-09T05:07:49.468Z,998.76
2018-03-09T05:08:15.583Z,998.74
2018-03-09T05:08:41.703Z,998.73
2018-03-09T05:09:07.801Z,998.71
2018-03-09T05:09:33.899Z,998.76
2018-03-09T05:10:00.005Z,998.77
2018-03-09T05:10:26.106Z,998.74
2018-03-09T05:10:52.202Z,998.74
2018-03-09T05:11:18.306Z,998.79
2018-03-09T05:11:44.408Z,998.77
2018-03-09T05:12:10.528Z,998.77
2018-03-09T05:12:36.627Z,998.79
2018-03-09T05:13:02.724Z,998.83
2018-03-09T05:13:28.841Z,998.82
2018-03-09T05:13:54.943Z,998.83
2018-03-09T05:14:21.036Z,998.84
2018-03-09T05:14:47.136Z,998.82
2018-03-09T05:15:13.239Z,998.83
2018-03-09T05:15:39.334Z,998.85
2018-03-09T05:16:05.442Z,998.85
2018-03-09T05:16:31.577Z,998.87
2018-03-09T05:16:57.679Z,998.87
2018-03-09T05:17:23.775Z,998.86
2018-03-09T05:17:49.877Z,998.83
2018-03-09T05:18:15.976Z,998.83
2018-03-09T05:18:42.076Z,998.85
2018-03-09T05:19:08.179Z,998.82
2018-03-09T05:19:34.284Z,998.85
2018-03-09T05:20:00.440Z,998.85
2018-03-09T05:20:26.479Z,998.84
2018-03-09T05:20:52.584Z,998.86
2018-03-09T05:21:18.680Z,998.85
2018-03-09T05:21:44.785Z,998.86
2018-03-09T05:22:10.882Z,998.89
2018-03-09T05:22:36.983Z,998.92
2018-03-09T05:23:03.083Z,998.93
2018-03-09T05:23:29.252Z,998.91
2018-03-09T05:23:55.297Z,998.88
2018-03-09T05:24:21.399Z,998.91
2018-03-09T05:24:47.497Z,998.92
2018-03-09T05:25:13.601Z,998.92
2018-03-09T05:25:39.718Z,998.91
2018-03-09T05:26:05.811Z,999
2018-03-09T05:26:31.916Z,998.95
2018-03-09T05:26:58.019Z,998.98